createdAt,value
2022-10-09T00:00:50.070Z,7.33
2022-10-09T00:03:18.156Z,7.34
2022-10-09T00:05:45.559Z,7.36
2022-10-09T00:08:12.724Z,7.41
2022-10-09T00:10:43.779Z,7.55
2022-10-09T00:13:11.317Z,7.61
2022-10-09T00:15:42.332Z,7.75
2022-10-09T00:18:10.713Z,7.90
2022-10-09T00:20:43.321Z,8.04
2022-10-09T00:23:14.578Z,8.12
2022-10-09T00:25:50.917Z,8.08
2022-10-09T00:28:17.706Z,8.08
2022-10-09T00:30:44.530Z,8.09
2022-10-09T00:33:11.325Z,8.07
2022-10-09T00:35:39.577Z,8.13
2022-10-09T00:38:07.600Z,8.26
2022-10-09T00:40:36.085Z,8.26
2022-10-09T00:43:04.444Z,8.26
2022-10-09T00:45:31.636Z,8.33
2022-10-09T00:48:01.935Z,8.40
2022-10-09T00:50:42.108Z,8.40
2022-10-09T00:53:12.641Z,8.44
2022-10-09T00:55:40.228Z,8.49
2022-10-09T00:58:07.078Z,8.46
2022-10-09T01:00:33.972Z,8.41
2022-10-09T01:03:01.847Z,8.32
2022-10-09T01:06:02.770Z,8.31
2022-10-09T01:09:06.247Z,8.27
2022-10-09T01:11:50.453Z,8.14
2022-10-09T01:14:17.150Z,8.03
2022-10-09T01:16:55.429Z,7.96
2022-10-09T01:19:46.554Z,7.86
2022-10-09T01:22:19.166Z,7.73
2022-10-09T01:25:01.642Z,7.59
2022-10-09T01:27:29.472Z,7.51
2022-10-09T01:30:03.182Z,7.46
2022-10-09T01:32:33.500Z,7.42
2022-10-09T01:35:02.069Z,7.48
2022-10-09T01:37:31.735Z,7.50
2022-10-09T01:39:59.431Z,7.46
2022-10-09T01:42:28.732Z,7.53
2022-10-09T01:44:55.527Z,7.49
2022-10-09T01:47:23.017Z,7.42
2022-10-09T01:50:08.112Z,7.39
2022-10-09T01:52:41.126Z,7.39
2022-10-09T01:55:36.244Z,7.43
2022-10-09T01:58:25.150Z,7.40
2022-10-09T02:01:00.749Z,7.39
2022-10-09T02:03:30.393Z,7.40
2022-10-09T02:05:58.525Z,7.51
2022-10-09T02:08:26.106Z,7.45
2022-10-09T02:10:56.651Z,7.38
2022-10-09T02:13:23.711Z,7.41
2022-10-09T02:15:56.057Z,7.36
2022-10-09T02:18:47.072Z,7.22
2022-10-09T02:21:26.301Z,7.10
2022-10-09T02:23:54.960Z,7.06
2022-10-09T02:26:21.916Z,6.94
2022-10-09T02:28:49.060Z,6.85
2022-10-09T02:31:18.960Z,6.81
2022-10-09T02:33:45.837Z,6.88
2022-10-09T02:36:13.297Z,6.94
2022-10-09T02:38:40.046Z,7.03
2022-10-09T02:41:06.732Z,7.05
2022-10-09T02:43:33.490Z,7.09
2022-10-09T02:46:00.254Z,7.08
2022-10-09T02:48:27.073Z,7.07
2022-10-09T02:50:53.855Z,7.01
2022-10-09T02:53:20.580Z,6.99
2022-10-09T02:55:47.317Z,6.99
2022-10-09T02:58:14.067Z,7.02
2022-10-09T03:00:40.900Z,7.13
2022-10-09T03:03:07.797Z,7.10
2022-10-09T03:05:34.617Z,7.06
2022-10-09T03:08:01.387Z,7.01
2022-10-09T03:10:28.203Z,6.95
2022-10-09T03:12:54.970Z,6.90
2022-10-09T03:15:21.857Z,6.87
2022-10-09T03:17:48.594Z,6.96
2022-10-09T03:20:15.972Z,6.99
2022-10-09T03:22:43.151Z,7.03
2022-10-09T03:25:09.946Z,6.95
2022-10-09T03:27:36.722Z,6.88
2022-10-09T03:30:04.010Z,6.88
2022-10-09T03:32:30.789Z,6.88
2022-10-09T03:34:59.262Z,6.88
2022-10-09T03:37:26.041Z,6.86
2022-10-09T03:39:52.944Z,6.78
2022-10-09T03:42:19.705Z,6.74
2022-10-09T03:44:46.459Z,6.65
2022-10-09T03:47:13.294Z,6.70
2022-10-09T03:49:40.028Z,6.68
2022-10-09T03:52:06.787Z,6.70
2022-10-09T03:54:33.624Z,6.61
2022-10-09T03:57:00.787Z,6.60
2022-10-09T03:59:27.481Z,6.62
2022-10-09T04:01:54.237Z,6.61
2022-10-09T04:04:20.934Z,6.63
2022-10-09T04:06:47.696Z,6.73
2022-10-09T04:09:14.489Z,6.81
2022-10-09T04:11:41.252Z,6.86
2022-10-09T04:14:08.061Z,6.86
2022-10-09T04:16:34.993Z,6.85
2022-10-09T04:19:01.802Z,6.90
2022-10-09T04:21:28.525Z,6.94
2022-10-09T04:23:55.325Z,6.92
2022-10-09T04:26:22.011Z,7.01
2022-10-09T04:28:49.015Z,7.00
2022-10-09T04:31:15.849Z,7.03
2022-10-09T04:33:42.672Z,7.06
2022-10-09T04:36:09.515Z,7.06
2022-10-09T04:38:36.287Z,6.99
2022-10-09T04:41:05.778Z,6.97
2022-10-09T04:43:34.754Z,7.02
2022-10-09T04:46:12.684Z,7.05
2022-10-09T04:48:41.020Z,7.03
2022-10-09T04:51:08.571Z,7.02
2022-10-09T04:53:36.565Z,7.07
2022-10-09T04:56:05.577Z,7.14
2022-10-09T04:58:32.996Z,7.13
2022-10-09T05:00:59.862Z,7.04
2022-10-09T05:03:26.617Z,7.01
2022-10-09T05:05:53.450Z,7.01
2022-10-09T05:08:20.200Z,6.99
2022-10-09T05:10:47.020Z,6.99
2022-10-09T05:13:13.859Z,6.99
2022-10-09T05:15:40.642Z,6.99
2022-10-09T05:18:07.425Z,6.96
2022-10-09T05:20:34.200Z,6.92
2022-10-09T05:23:01.066Z,6.88
2022-10-09T05:25:27.792Z,6.88
2022-10-09T05:27:54.531Z,6.87
2022-10-09T05:30:21.246Z,6.82
2022-10-09T05:32:48.184Z,6.86
2022-10-09T05:35:15.815Z,6.88
2022-10-09T05:37:44.840Z,6.92
2022-10-09T05:40:11.675Z,6.96
2022-10-09T05:42:38.469Z,6.95
2022-10-09T05:45:05.595Z,7.02
2022-10-09T05:47:32.400Z,7.02
2022-10-09T05:49:59.190Z,7.01
2022-10-09T05:52:26.158Z,6.97
2022-10-09T05:54:52.988Z,6.98
2022-10-09T05:57:19.712Z,6.98
2022-10-09T05:59:46.447Z,6.95
2022-10-09T06:02:14.401Z,6.94
2022-10-09T06:04:41.164Z,6.89
2022-10-09T06:07:07.885Z,6.89
2022-10-09T06:09:34.824Z,6.94
2022-10-09T06:12:01.628Z,6.94
2022-10-09T06:14:28.512Z,6.98
2022-10-09T06:16:55.344Z,6.98
2022-10-09T06:19:22.971Z,6.97
2022-10-09T06:21:50.545Z,6.99
2022-10-09T06:24:28.652Z,7.02
2022-10-09T06:26:57.775Z,7.01
2022-10-09T06:29:24.898Z,7.05
2022-10-09T06:31:51.853Z,7.04
2022-10-09T06:34:18.718Z,7.09
2022-10-09T06:36:45.457Z,7.14
2022-10-09T06:39:12.269Z,7.16
2022-10-09T06:41:39.045Z,7.22
2022-10-09T06:44:27.733Z,7.27
2022-10-09T06:46:54.475Z,7.29
2022-10-09T06:49:21.245Z,7.31
2022-10-09T06:51:48.068Z,7.35
2022-10-09T06:54:17.311Z,7.40
2022-10-09T06:56:44.639Z,7.53
2022-10-09T06:59:12.199Z,7.56
2022-10-09T07:01:39.027Z,7.64
2022-10-09T07:04:09.787Z,7.63
2022-10-09T07:06:42.430Z,7.75
2022-10-09T07:09:12.123Z,7.76
2022-10-09T07:11:44.609Z,7.78
2022-10-09T07:14:13.154Z,7.83
2022-10-09T07:16:43.280Z,7.96
2022-10-09T07:19:11.745Z,8.06
2022-10-09T07:21:41.251Z,8.07
2022-10-09T07:24:08.860Z,8.19
2022-10-09T07:26:38.816Z,8.25
2022-10-09T07:29:07.553Z,8.30
2022-10-09T07:31:34.551Z,8.31
2022-10-09T07:34:01.785Z,8.37
2022-10-09T07:36:28.536Z,8.44
2022-10-09T07:38:58.125Z,8.59
2022-10-09T07:41:27.448Z,8.69
2022-10-09T07:43:54.545Z,8.70
2022-10-09T07:46:23.429Z,8.80
2022-10-09T07:48:51.035Z,8.93
2022-10-09T07:51:26.921Z,9.09
2022-10-09T07:53:54.076Z,9.26
2022-10-09T07:56:26.662Z,9.63
2022-10-09T07:58:56.033Z,9.78
2022-10-09T08:01:24.328Z,9.80
2022-10-09T08:03:51.511Z,9.85
2022-10-09T08:06:18.792Z,9.93
2022-10-09T08:08:49.834Z,10.24
2022-10-09T08:11:18.026Z,11.01
2022-10-09T08:13:45.987Z,12.13
2022-10-09T08:16:13.689Z,13.10
2022-10-09T08:18:40.972Z,13.75
2022-10-09T08:21:18.997Z,14.57
2022-10-09T08:23:46.087Z,15.12
2022-10-09T08:26:20.310Z,15.81
2022-10-09T08:28:58.440Z,15.75
2022-10-09T08:31:26.822Z,16.29
2022-10-09T08:33:59.146Z,16.67
2022-10-09T08:36:26.390Z,16.49
2022-10-09T08:38:53.602Z,17.20
2022-10-09T08:41:32.433Z,17.60
2022-10-09T08:44:13.895Z,17.83
2022-10-09T08:46:59.346Z,18.08
2022-10-09T08:49:41.883Z,18.28
2022-10-09T08:52:17.323Z,18.66
2022-10-09T08:54:44.465Z,19.21
2022-10-09T08:57:15.893Z,19.24
2022-10-09T08:59:43.621Z,19.26
2022-10-09T09:02:24.265Z,19.59
2022-10-09T09:04:54.578Z,19.61
2022-10-09T09:07:21.638Z,19.54
2022-10-09T09:09:56.669Z,19.93
2022-10-09T09:12:38.874Z,20.24
2022-10-09T09:15:39.629Z,20.63
2022-10-09T09:18:42.831Z,20.72
2022-10-09T09:21:39.185Z,20.73
2022-10-09T09:24:17.935Z,20.83
2022-10-09T09:26:50.203Z,20.62
2022-10-09T09:29:23.446Z,20.44
2022-10-09T09:31:54.480Z,20.37
2022-10-09T09:34:47.394Z,21.13
2022-10-09T09:37:14.570Z,21.45
2022-10-09T09:40:31.317Z,21.25
2022-10-09T09:42:28.726Z,21.12
2022-10-09T09:45:07.482Z,21.12
2022-10-09T09:47:45.539Z,20.99
2022-10-09T09:50:35.028Z,21.29
2022-10-09T09:53:06.513Z,21.44
2022-10-09T09:55:34.394Z,21.21
2022-10-09T09:58:08.985Z,21.97
2022-10-09T10:00:36.103Z,21.80
2022-10-09T10:03:23.772Z,22.22
2022-10-09T10:05:51.826Z,21.99
2022-10-09T10:08:25.727Z,22.71
2022-10-09T10:10:55.818Z,22.59
2022-10-09T10:13:38.026Z,22.71
2022-10-09T10:16:08.676Z,23.00
2022-10-09T10:18:41.952Z,23.18
2022-10-09T10:21:12.820Z,23.79
2022-10-09T10:23:44.243Z,23.67
2022-10-09T10:26:14.205Z,23.17
2022-10-09T10:29:07.079Z,23.29
2022-10-09T10:32:11.230Z,23.09
2022-10-09T10:34:47.190Z,22.47
2022-10-09T10:37:14.086Z,22.77
2022-10-09T10:39:47.004Z,22.67
2022-10-09T10:42:28.498Z,22.26
2022-10-09T10:45:10.009Z,22.12
2022-10-09T10:47:43.003Z,22.73
2022-10-09T10:50:14.541Z,23.31
2022-10-09T10:52:50.339Z,22.54
2022-10-09T10:55:26.804Z,22.89
2022-10-09T10:58:12.449Z,23.32
2022-10-09T11:00:47.068Z,23.74
2022-10-09T11:03:40.098Z,23.40
2022-10-09T11:06:22.338Z,23.96
2022-10-09T11:09:10.304Z,23.91
2022-10-09T11:11:42.517Z,24.54
2022-10-09T11:14:20.353Z,23.67
2022-10-09T11:17:12.238Z,22.78
2022-10-09T11:19:45.739Z,23.05
2022-10-09T11:22:21.355Z,22.63
2022-10-09T11:24:57.749Z,21.77
2022-10-09T11:27:39.190Z,22.25
2022-10-09T11:30:10.537Z,22.63
2022-10-09T11:33:23.281Z,22.71
2022-10-09T11:36:05.613Z,23.22
2022-10-09T11:38:39.076Z,24.07
2022-10-09T11:41:07.593Z,24.26
2022-10-09T11:44:00.992Z,23.80
2022-10-09T11:47:01.784Z,24.43
2022-10-09T11:49:46.535Z,23.57
2022-10-09T11:52:25.139Z,24.61
2022-10-09T11:54:51.851Z,25.31
2022-10-09T11:57:28.455Z,25.26
2022-10-09T12:00:09.638Z,25.87
2022-10-09T12:02:37.816Z,24.31
2022-10-09T12:05:20.145Z,23.40
2022-10-09T12:07:47.078Z,23.62
2022-10-09T12:10:31.577Z,24.10
2022-10-09T12:13:08.268Z,25.49
2022-10-09T12:15:54.964Z,25.05
2022-10-09T12:18:30.168Z,24.49
2022-10-09T12:20:59.929Z,25.62
2022-10-09T12:23:31.311Z,25.82
2022-10-09T12:26:00.491Z,23.94
2022-10-09T12:28:36.393Z,25.89
2022-10-09T12:31:07.780Z,25.49
2022-10-09T12:33:43.713Z,25.43
2022-10-09T12:36:16.333Z,23.42
2022-10-09T12:38:43.195Z,22.96
2022-10-09T12:41:30.275Z,22.97
2022-10-09T12:43:58.416Z,23.55
2022-10-09T12:46:34.565Z,22.57
2022-10-09T12:49:05.551Z,24.95
2022-10-09T12:51:33.988Z,25.41
2022-10-09T12:54:09.118Z,26.74
2022-10-09T12:56:38.483Z,26.74
2022-10-09T12:59:07.463Z,26.02
2022-10-09T13:01:35.620Z,25.51
2022-10-09T13:04:04.755Z,25.96
2022-10-09T13:06:45.202Z,25.35
2022-10-09T13:09:25.077Z,24.14
2022-10-09T13:11:59.662Z,24.66
2022-10-09T13:15:07.666Z,24.00
2022-10-09T13:17:42.011Z,24.99
2022-10-09T13:20:11.847Z,24.11
2022-10-09T13:22:39.523Z,23.98
2022-10-09T13:25:07.081Z,24.75
2022-10-09T13:27:38.019Z,23.52
2022-10-09T13:30:06.260Z,24.43
2022-10-09T13:32:33.247Z,24.11
2022-10-09T13:35:00.150Z,24.51
2022-10-09T13:37:27.231Z,23.80
2022-10-09T13:39:59.640Z,23.51
2022-10-09T13:42:30.031Z,23.92
2022-10-09T13:44:56.858Z,25.21
2022-10-09T13:47:24.807Z,25.27
2022-10-09T13:49:51.840Z,24.74
2022-10-09T13:52:18.823Z,24.33
2022-10-09T13:54:45.717Z,25.21
2022-10-09T13:57:12.638Z,24.11
2022-10-09T13:59:39.839Z,24.66
2022-10-09T14:02:06.656Z,24.07
2022-10-09T14:04:33.648Z,24.79
2022-10-09T14:07:00.543Z,23.55
2022-10-09T14:09:27.439Z,23.80
2022-10-09T14:11:54.247Z,23.76
2022-10-09T14:14:22.513Z,24.47
2022-10-09T14:16:50.742Z,23.49
2022-10-09T14:19:18.113Z,23.20
2022-10-09T14:21:46.833Z,24.16
2022-10-09T14:24:14.560Z,24.37
2022-10-09T14:26:41.341Z,23.23
2022-10-09T14:29:10.019Z,23.92
2022-10-09T14:31:36.814Z,23.42
2022-10-09T14:34:03.707Z,23.59
2022-10-09T14:36:31.638Z,22.61
2022-10-09T14:39:01.486Z,22.20
2022-10-09T14:41:28.301Z,22.91
2022-10-09T14:43:59.225Z,24.11
2022-10-09T14:46:27.857Z,23.48
2022-10-09T14:48:56.465Z,23.25
2022-10-09T14:51:25.389Z,22.96
2022-10-09T14:53:55.613Z,22.55
2022-10-09T14:56:22.524Z,23.36
2022-10-09T14:58:49.325Z,24.00
2022-10-09T15:01:18.337Z,23.42
2022-10-09T15:03:46.202Z,22.88
2022-10-09T15:06:13.352Z,21.37
2022-10-09T15:08:42.502Z,20.63
2022-10-09T15:11:11.028Z,19.89
2022-10-09T15:13:39.015Z,18.98
2022-10-09T15:16:09.423Z,19.49
2022-10-09T15:18:36.205Z,19.66
2022-10-09T15:21:04.082Z,21.09
2022-10-09T15:23:31.021Z,22.13
2022-10-09T15:26:00.691Z,22.48
2022-10-09T15:28:27.954Z,21.69
2022-10-09T15:31:00.733Z,20.26
2022-10-09T15:33:27.632Z,17.85
2022-10-09T15:35:55.450Z,16.47
2022-10-09T15:38:24.700Z,16.03
2022-10-09T15:40:56.694Z,15.47
2022-10-09T15:43:25.954Z,15.04
2022-10-09T15:46:00.466Z,14.66
2022-10-09T15:48:27.264Z,14.35
2022-10-09T15:50:54.048Z,14.22
2022-10-09T15:53:24.763Z,14.02
2022-10-09T15:55:53.249Z,13.96
2022-10-09T15:58:20.581Z,13.77
2022-10-09T16:00:49.537Z,13.59
2022-10-09T16:03:18.023Z,13.49
2022-10-09T16:05:48.755Z,13.27
2022-10-09T16:08:18.905Z,13.17
2022-10-09T16:10:49.191Z,13.20
2022-10-09T16:13:16.592Z,13.23
2022-10-09T16:15:47.317Z,13.21
2022-10-09T16:18:16.358Z,13.10
2022-10-09T16:20:43.594Z,13.04
2022-10-09T16:23:11.801Z,13.01
2022-10-09T16:25:39.924Z,12.84
2022-10-09T16:28:09.596Z,12.65
2022-10-09T16:30:41.885Z,12.50
2022-10-09T16:33:12.443Z,12.32
2022-10-09T16:35:40.090Z,12.24
2022-10-09T16:38:07.070Z,12.19
2022-10-09T16:40:57.209Z,12.09
2022-10-09T16:43:20.613Z,12.05
2022-10-09T16:45:47.384Z,12.11
2022-10-09T16:48:14.191Z,12.01
2022-10-09T16:50:42.593Z,11.98
2022-10-09T16:53:09.538Z,11.99
2022-10-09T16:55:36.425Z,11.81
2022-10-09T16:58:03.236Z,11.77
2022-10-09T17:00:30.084Z,11.72
2022-10-09T17:02:56.946Z,11.72
2022-10-09T17:05:25.608Z,11.67
2022-10-09T17:07:52.765Z,11.71
2022-10-09T17:10:19.778Z,11.78
2022-10-09T17:12:46.607Z,11.83
2022-10-09T17:15:13.625Z,11.81
2022-10-09T17:17:40.969Z,11.66
2022-10-09T17:20:18.637Z,11.65
2022-10-09T17:22:45.391Z,11.52
2022-10-09T17:25:13.654Z,11.49
2022-10-09T17:27:40.402Z,11.55
2022-10-09T17:30:07.948Z,11.43
2022-10-09T17:32:34.756Z,11.31
2022-10-09T17:35:01.758Z,11.24
2022-10-09T17:37:28.597Z,11.11
2022-10-09T17:39:55.337Z,11.02
2022-10-09T17:42:22.086Z,10.96
2022-10-09T17:44:48.859Z,10.95
2022-10-09T17:47:15.648Z,10.94
2022-10-09T17:49:42.499Z,10.88
2022-10-09T17:52:09.428Z,10.83
2022-10-09T17:54:38.856Z,10.80
2022-10-09T17:57:07.156Z,10.83
2022-10-09T17:59:34.726Z,10.72
2022-10-09T18:02:01.548Z,10.57
2022-10-09T18:04:28.563Z,10.35
2022-10-09T18:06:55.918Z,10.14
2022-10-09T18:09:22.792Z,9.94
2022-10-09T18:11:49.581Z,9.90
2022-10-09T18:14:16.550Z,10.02
2022-10-09T18:16:43.605Z,9.98
2022-10-09T18:19:13.479Z,10.03
2022-10-09T18:21:42.719Z,10.03
2022-10-09T18:24:09.976Z,10.14
2022-10-09T18:26:36.823Z,10.13
2022-10-09T18:29:04.764Z,10.02
2022-10-09T18:31:31.874Z,9.99
2022-10-09T18:33:59.789Z,10.05
2022-10-09T18:36:31.592Z,10.00
2022-10-09T18:39:05.287Z,10.02
2022-10-09T18:41:32.395Z,9.94
2022-10-09T18:44:01.513Z,9.85
2022-10-09T18:46:33.976Z,9.68
2022-10-09T18:49:01.051Z,9.57
2022-10-09T18:51:28.806Z,9.70
2022-10-09T18:54:00.206Z,9.66
2022-10-09T18:56:30.841Z,9.56
2022-10-09T18:58:59.160Z,9.49
2022-10-09T19:01:25.999Z,9.43
2022-10-09T19:03:53.005Z,9.40
2022-10-09T19:06:20.248Z,9.32
2022-10-09T19:08:47.235Z,9.27
2022-10-09T19:11:14.694Z,9.22
2022-10-09T19:13:42.594Z,9.44
2022-10-09T19:16:09.915Z,9.43
2022-10-09T19:18:37.975Z,9.42
2022-10-09T19:21:05.032Z,9.42
2022-10-09T19:23:31.825Z,9.48
2022-10-09T19:25:59.976Z,9.59
2022-10-09T19:28:31.165Z,9.70
2022-10-09T19:30:59.185Z,9.65
2022-10-09T19:33:26.011Z,9.66
2022-10-09T19:35:54.866Z,9.71
2022-10-09T19:38:22.559Z,9.67
2022-10-09T19:40:50.600Z,9.64
2022-10-09T19:43:19.025Z,9.66
2022-10-09T19:45:49.207Z,9.70
2022-10-09T19:48:17.320Z,9.73
2022-10-09T19:50:45.502Z,9.59
2022-10-09T19:53:13.136Z,9.68
2022-10-09T19:55:39.962Z,9.62
2022-10-09T19:58:06.857Z,9.61
2022-10-09T20:00:33.679Z,9.75
2022-10-09T20:03:00.516Z,9.76
2022-10-09T20:05:27.340Z,9.79
2022-10-09T20:07:54.121Z,9.85
2022-10-09T20:10:22.033Z,9.75
2022-10-09T20:12:49.099Z,9.68
2022-10-09T20:15:16.240Z,9.75
2022-10-09T20:17:43.126Z,9.82
2022-10-09T20:20:10.362Z,9.83
2022-10-09T20:22:37.081Z,9.78
2022-10-09T20:25:04.428Z,9.76
2022-10-09T20:27:31.327Z,9.80
2022-10-09T20:29:58.176Z,9.76
2022-10-09T20:32:25.496Z,9.77
2022-10-09T20:34:52.344Z,9.67
2022-10-09T20:37:19.280Z,9.60
2022-10-09T20:39:46.216Z,9.67
2022-10-09T20:42:12.978Z,9.59
2022-10-09T20:44:39.814Z,9.57
2022-10-09T20:47:06.591Z,9.66
2022-10-09T20:49:33.499Z,9.63
2022-10-09T20:52:00.254Z,9.59
2022-10-09T20:54:27.182Z,9.54
2022-10-09T20:56:54.502Z,9.51
2022-10-09T20:59:21.312Z,9.53
2022-10-09T21:01:48.122Z,9.53
2022-10-09T21:04:15.057Z,9.53
2022-10-09T21:06:42.556Z,9.58
2022-10-09T21:09:09.401Z,9.50
2022-10-09T21:11:36.344Z,9.46
2022-10-09T21:14:03.500Z,9.42
2022-10-09T21:16:30.407Z,9.43
2022-10-09T21:19:00.459Z,9.44
2022-10-09T21:21:28.695Z,9.40
2022-10-09T21:23:57.145Z,9.42
2022-10-09T21:26:25.347Z,9.47
2022-10-09T21:28:56.789Z,9.40
2022-10-09T21:31:28.452Z,9.38
2022-10-09T21:33:56.443Z,9.41
2022-10-09T21:37:08.954Z,9.45
2022-10-09T21:39:32.922Z,9.45
2022-10-09T21:41:59.746Z,9.46
2022-10-09T21:44:27.566Z,9.38
2022-10-09T21:46:54.517Z,9.37
2022-10-09T21:49:29.640Z,9.35
2022-10-09T21:51:56.467Z,9.28
2022-10-09T21:54:23.603Z,9.28
2022-10-09T21:56:50.423Z,9.18
2022-10-09T21:59:17.504Z,9.18
2022-10-09T22:01:44.396Z,9.18
2022-10-09T22:04:11.180Z,9.17
2022-10-09T22:06:38.021Z,9.09
2022-10-09T22:09:05.003Z,9.04
2022-10-09T22:11:31.772Z,9.03
2022-10-09T22:13:58.657Z,8.98
2022-10-09T22:16:25.406Z,8.94
2022-10-09T22:18:52.234Z,8.89
2022-10-09T22:21:19.592Z,8.79
2022-10-09T22:23:46.362Z,8.76
2022-10-09T22:26:18.662Z,8.75
2022-10-09T22:28:46.993Z,8.74
2022-10-09T22:31:19.696Z,8.70
2022-10-09T22:33:55.302Z,8.69
2022-10-09T22:36:24.153Z,8.65
2022-10-09T22:38:54.399Z,8.62
2022-10-09T22:41:22.568Z,8.67
2022-10-09T22:43:51.725Z,8.57
2022-10-09T22:46:22.103Z,8.50
2022-10-09T22:48:49.772Z,8.45
2022-10-09T22:51:19.298Z,8.38
2022-10-09T22:53:46.099Z,8.33
2022-10-09T22:56:16.659Z,8.23
2022-10-09T22:58:44.885Z,8.19
2022-10-09T23:01:15.661Z,8.12
2022-10-09T23:03:42.389Z,8.11
2022-10-09T23:06:17.817Z,8.10
2022-10-09T23:08:46.547Z,8.06
2022-10-09T23:11:14.617Z,8.08
2022-10-09T23:13:41.429Z,8.10
2022-10-09T23:16:10.757Z,8.10
2022-10-09T23:18:38.675Z,8.04
2022-10-09T23:21:07.782Z,8.03
2022-10-09T23:23:35.078Z,7.96
2022-10-09T23:26:11.097Z,7.89
2022-10-09T23:28:38.786Z,7.88
2022-10-09T23:31:15.183Z,7.85
2022-10-09T23:33:43.984Z,7.77
2022-10-09T23:36:13.727Z,7.75
2022-10-09T23:38:40.915Z,7.74
2022-10-09T23:41:11.029Z,7.67
2022-10-09T23:43:39.037Z,7.64
2022-10-09T23:46:08.405Z,7.57
2022-10-09T23:48:35.240Z,7.53
2022-10-09T23:51:02.328Z,7.49
2022-10-09T23:53:29.136Z,7.42
2022-10-09T23:55:55.986Z,7.49
2022-10-09T23:58:22.967Z,7.49
